createdAt,value
2024-02-16T00:00:30.401Z,7.57
2024-02-16T00:02:58.869Z,8.10
2024-02-16T00:05:27.038Z,9.80
2024-02-16T00:07:55.374Z,7.67
2024-02-16T00:10:23.617Z,7.20
2024-02-16T00:12:51.974Z,9.00
2024-02-16T00:15:21.820Z,7.33
2024-02-16T00:17:50.505Z,7.17
2024-02-16T00:20:20.220Z,15.03
2024-02-16T00:22:48.454Z,5.13
2024-02-16T00:25:16.958Z,7.00
2024-02-16T00:27:45.228Z,6.80
2024-02-16T00:30:16.915Z,9.63
2024-02-16T00:32:46.859Z,8.10
2024-02-16T00:35:17.464Z,6.13
2024-02-16T00:37:46.827Z,6.83
2024-02-16T00:40:15.236Z,7.23
2024-02-16T00:42:43.493Z,7.40
2024-02-16T00:45:10.905Z,8.73
2024-02-16T00:47:40.809Z,9.10
2024-02-16T00:50:11.921Z,6.57
2024-02-16T00:52:40.673Z,8.97
2024-02-16T00:55:11.010Z,6.43
2024-02-16T00:57:39.259Z,5.90
2024-02-16T01:00:10.334Z,9.07
2024-02-16T01:02:38.670Z,5.63
2024-02-16T01:05:07.562Z,6.20
2024-02-16T01:07:37.215Z,6.43
2024-02-16T01:10:05.813Z,8.50
2024-02-16T01:12:34.068Z,7.67
2024-02-16T01:15:02.531Z,6.53
2024-02-16T01:17:31.549Z,6.27
2024-02-16T01:19:59.814Z,4.80
2024-02-16T01:22:30.487Z,7.43
2024-02-16T01:25:00.102Z,6.33
2024-02-16T01:27:29.783Z,6.53
2024-02-16T01:29:58.105Z,7.60
2024-02-16T01:32:26.433Z,5.17
2024-02-16T01:34:54.892Z,6.57
2024-02-16T01:37:23.216Z,6.03
2024-02-16T01:39:51.480Z,5.50
2024-02-16T01:42:21.163Z,8.47
2024-02-16T01:44:49.648Z,7.20
2024-02-16T01:47:20.082Z,5.80
2024-02-16T01:49:48.587Z,6.60
2024-02-16T01:52:17.038Z,9.00
2024-02-16T01:54:45.535Z,5.83
2024-02-16T01:57:13.974Z,5.17
2024-02-16T01:59:44.309Z,6.33
2024-02-16T02:02:12.451Z,5.23
2024-02-16T02:04:40.805Z,6.37
2024-02-16T02:07:15.996Z,6.50
2024-02-16T02:09:44.694Z,6.27
2024-02-16T02:12:13.229Z,11.13
2024-02-16T02:14:43.046Z,4.53
2024-02-16T02:17:11.426Z,6.77
2024-02-16T02:19:39.878Z,5.97
2024-02-16T02:22:15.111Z,7.07
2024-02-16T02:24:43.350Z,7.37
2024-02-16T02:27:11.568Z,5.17
2024-02-16T02:29:39.922Z,5.93
2024-02-16T02:32:08.557Z,6.30
2024-02-16T02:34:37.589Z,6.07
2024-02-16T02:37:06.188Z,6.00
2024-02-16T02:39:36.549Z,6.10
2024-02-16T02:42:05.040Z,5.43
2024-02-16T02:44:33.949Z,6.03
2024-02-16T02:47:02.371Z,5.43
2024-02-16T02:49:30.820Z,5.67
2024-02-16T02:51:59.117Z,5.30
2024-02-16T02:54:27.404Z,6.90
2024-02-16T02:56:57.201Z,4.73
2024-02-16T02:59:25.401Z,5.00
2024-02-16T03:01:53.548Z,7.20
2024-02-16T03:04:21.852Z,6.93
2024-02-16T03:06:50.095Z,5.90
2024-02-16T03:09:18.387Z,5.73
2024-02-16T03:11:46.671Z,7.83
2024-02-16T03:14:16.336Z,5.50
2024-02-16T03:16:44.567Z,6.47
2024-02-16T03:19:12.865Z,5.23
2024-02-16T03:21:41.228Z,5.67
2024-02-16T03:24:09.921Z,5.07
2024-02-16T03:26:38.251Z,4.73
2024-02-16T03:29:06.391Z,6.50
2024-02-16T03:31:36.805Z,6.43
2024-02-16T03:34:05.360Z,5.63
2024-02-16T03:36:33.618Z,6.53
2024-02-16T03:39:02.017Z,6.40
2024-02-16T03:41:30.292Z,4.30
2024-02-16T03:43:59.672Z,6.30
2024-02-16T03:46:27.906Z,4.93
2024-02-16T03:48:57.670Z,6.50
2024-02-16T03:51:26.012Z,4.67
2024-02-16T03:53:54.293Z,5.87
2024-02-16T03:56:22.745Z,7.90
2024-02-16T03:58:51.046Z,5.50
2024-02-16T04:01:19.349Z,5.03
2024-02-16T04:03:47.747Z,3.83
2024-02-16T04:06:17.467Z,4.30
2024-02-16T04:08:45.750Z,8.43
2024-02-16T04:11:16.366Z,8.50
2024-02-16T04:13:44.742Z,5.90
2024-02-16T04:16:13.035Z,5.30
2024-02-16T04:18:41.505Z,6.37
2024-02-16T04:21:09.850Z,8.50
2024-02-16T04:23:39.429Z,14.93
2024-02-16T04:26:08.256Z,8.43
2024-02-16T04:28:36.838Z,9.50
2024-02-16T04:31:05.141Z,7.10
2024-02-16T04:33:33.520Z,5.60
2024-02-16T04:36:01.861Z,4.63
2024-02-16T04:38:30.068Z,4.37
2024-02-16T04:40:59.634Z,6.23
2024-02-16T04:43:27.884Z,5.53
2024-02-16T04:45:56.476Z,7.50
2024-02-16T04:48:24.798Z,7.77
2024-02-16T04:50:53.672Z,6.90
2024-02-16T04:53:21.890Z,5.80
2024-02-16T04:55:50.156Z,5.07
2024-02-16T04:58:19.773Z,8.33
2024-02-16T05:00:48.911Z,6.27
2024-02-16T05:03:17.448Z,8.30
2024-02-16T05:05:46.506Z,6.93
2024-02-16T05:08:14.986Z,5.53
2024-02-16T05:10:43.254Z,8.57
2024-02-16T05:13:12.656Z,4.60
2024-02-16T05:15:42.706Z,4.13
2024-02-16T05:18:13.815Z,4.23
2024-02-16T05:20:42.617Z,6.20
2024-02-16T05:23:11.631Z,4.90
2024-02-16T05:25:39.972Z,4.73
2024-02-16T05:28:08.487Z,4.53
2024-02-16T05:30:36.705Z,5.57
2024-02-16T05:33:06.768Z,8.10
2024-02-16T05:35:35.396Z,6.10
2024-02-16T05:38:11.572Z,4.10
2024-02-16T05:40:54.295Z,3.80
2024-02-16T05:43:22.504Z,4.70
2024-02-16T05:45:50.726Z,5.78
2024-02-16T05:48:20.845Z,3.63
2024-02-16T05:50:49.373Z,4.20
2024-02-16T05:53:17.673Z,4.07
2024-02-16T05:55:45.965Z,5.53
2024-02-16T05:58:14.160Z,4.27
2024-02-16T06:00:43.790Z,3.83
2024-02-16T06:03:12.103Z,4.90
2024-02-16T06:05:45.153Z,4.50
2024-02-16T06:08:13.862Z,5.20
2024-02-16T06:10:42.956Z,4.53
2024-02-16T06:13:11.316Z,3.77
2024-02-16T06:15:39.523Z,9.17
2024-02-16T06:18:07.873Z,8.50
2024-02-16T06:20:36.352Z,4.37
2024-02-16T06:23:06.319Z,4.13
2024-02-16T06:25:34.561Z,4.17
2024-02-16T06:28:03.844Z,4.70
2024-02-16T06:30:32.146Z,5.83
2024-02-16T06:33:01.598Z,4.50
2024-02-16T06:35:31.578Z,6.07
2024-02-16T06:37:59.800Z,4.20
2024-02-16T06:40:29.600Z,4.00
2024-02-16T06:42:57.799Z,4.27
2024-02-16T06:45:27.022Z,5.67
2024-02-16T06:47:55.458Z,4.23
2024-02-16T06:50:23.755Z,4.40
2024-02-16T06:52:52.007Z,4.83
2024-02-16T06:55:20.458Z,5.23
2024-02-16T06:57:51.658Z,5.90
2024-02-16T07:00:21.269Z,4.50
2024-02-16T07:02:49.652Z,6.90
2024-02-16T07:05:19.042Z,5.60
2024-02-16T07:07:47.416Z,4.17
2024-02-16T07:10:15.735Z,6.33
2024-02-16T07:12:44.135Z,6.03
2024-02-16T07:15:13.902Z,4.87
2024-02-16T07:17:42.501Z,7.28
2024-02-16T07:20:11.383Z,8.80
2024-02-16T07:22:40.454Z,6.50
2024-02-16T07:25:09.785Z,6.43
2024-02-16T07:27:38.027Z,4.80
2024-02-16T07:30:07.628Z,5.30
2024-02-16T07:32:37.337Z,5.00
2024-02-16T07:35:06.299Z,6.73
2024-02-16T07:37:34.708Z,6.37
2024-02-16T07:40:03.014Z,4.47
2024-02-16T07:42:31.254Z,4.57
2024-02-16T07:44:59.547Z,7.70
2024-02-16T07:47:28.730Z,7.30
2024-02-16T07:49:58.481Z,3.93
2024-02-16T07:52:26.729Z,4.30
2024-02-16T07:54:54.989Z,5.57
2024-02-16T07:57:23.328Z,5.33
2024-02-16T07:59:51.826Z,5.97
2024-02-16T08:02:20.707Z,4.37
2024-02-16T08:04:49.610Z,4.80
2024-02-16T08:07:19.587Z,7.77
2024-02-16T08:09:49.146Z,5.20
2024-02-16T08:12:17.892Z,5.17
2024-02-16T08:14:47.443Z,5.03
2024-02-16T08:17:19.930Z,4.10
2024-02-16T08:19:55.338Z,4.40
2024-02-16T08:22:25.342Z,4.30
2024-02-16T08:24:53.698Z,5.33
2024-02-16T08:27:22.515Z,7.23
2024-02-16T08:29:51.847Z,4.30
2024-02-16T08:32:21.664Z,4.67
2024-02-16T08:34:50.957Z,6.80
2024-02-16T08:37:19.731Z,5.10
2024-02-16T08:39:50.760Z,4.97
2024-02-16T08:42:19.073Z,5.67
2024-02-16T08:44:47.311Z,5.13
2024-02-16T08:47:15.501Z,3.90
2024-02-16T08:49:43.978Z,3.63
2024-02-16T08:52:12.272Z,3.80
2024-02-16T08:54:40.699Z,3.50
2024-02-16T08:57:11.210Z,4.90
2024-02-16T08:59:39.604Z,4.90
2024-02-16T09:02:08.275Z,6.97
2024-02-16T09:04:36.544Z,4.57
2024-02-16T09:07:05.435Z,4.33
2024-02-16T09:09:34.678Z,3.57
2024-02-16T09:12:03.216Z,3.90
2024-02-16T09:14:33.173Z,4.10
2024-02-16T09:17:01.387Z,4.50
2024-02-16T09:19:29.830Z,4.83
2024-02-16T09:21:59.678Z,3.40
2024-02-16T09:24:30.544Z,5.40
2024-02-16T09:27:02.342Z,4.60
2024-02-16T09:29:32.001Z,3.93
2024-02-16T09:32:00.701Z,6.13
2024-02-16T09:34:29.845Z,7.00
2024-02-16T09:36:58.106Z,7.10
2024-02-16T09:39:28.369Z,4.60
2024-02-16T09:41:56.712Z,3.73
2024-02-16T09:44:25.877Z,4.27
2024-02-16T09:46:57.018Z,4.13
2024-02-16T09:49:31.755Z,5.43
2024-02-16T09:52:05.758Z,4.23
2024-02-16T09:54:35.903Z,5.43
2024-02-16T09:57:05.832Z,5.43
2024-02-16T09:59:34.320Z,3.87
2024-02-16T10:02:04.987Z,4.83
2024-02-16T10:04:36.765Z,5.53
2024-02-16T10:07:10.534Z,4.77
2024-02-16T10:09:43.224Z,4.47
2024-02-16T10:12:12.381Z,5.80
2024-02-16T10:14:42.224Z,4.90
2024-02-16T10:17:18.401Z,4.37
2024-02-16T10:19:46.796Z,4.70
2024-02-16T10:22:15.457Z,5.67
2024-02-16T10:24:44.435Z,5.17
2024-02-16T10:27:17.084Z,5.10
2024-02-16T10:29:46.554Z,4.30
2024-02-16T10:32:16.569Z,5.50
2024-02-16T10:34:46.326Z,6.07
2024-02-16T10:37:15.765Z,4.13
2024-02-16T10:39:44.761Z,5.53
2024-02-16T10:42:14.127Z,5.10
2024-02-16T10:44:44.037Z,6.27
2024-02-16T10:47:12.365Z,8.60
2024-02-16T10:49:42.274Z,4.80
2024-02-16T10:52:11.384Z,4.40
2024-02-16T10:54:41.827Z,6.00
2024-02-16T10:57:10.809Z,7.97
2024-02-16T10:59:45.385Z,5.00
2024-02-16T11:02:14.187Z,6.57
2024-02-16T11:04:49.347Z,4.90
2024-02-16T11:07:19.728Z,4.80
2024-02-16T11:09:49.039Z,4.80
2024-02-16T11:12:18.068Z,6.57
2024-02-16T11:14:47.784Z,8.77
2024-02-16T11:17:17.311Z,5.50
2024-02-16T11:19:48.348Z,4.40
2024-02-16T11:22:19.176Z,7.03
2024-02-16T11:24:49.082Z,7.50
2024-02-16T11:27:21.142Z,8.63
2024-02-16T11:29:51.109Z,5.50
2024-02-16T11:32:21.958Z,8.70
2024-02-16T11:34:51.945Z,6.60
2024-02-16T11:37:20.457Z,6.20
2024-02-16T11:39:49.026Z,8.00
2024-02-16T11:42:22.007Z,6.23
2024-02-16T11:44:55.364Z,7.27
2024-02-16T11:47:27.366Z,5.77
2024-02-16T11:50:06.481Z,10.90
2024-02-16T11:52:35.633Z,5.47
2024-02-16T11:55:05.565Z,5.47
2024-02-16T11:57:34.849Z,6.70
2024-02-16T12:00:08.161Z,6.77
2024-02-16T12:02:38.437Z,5.80
2024-02-16T12:05:09.371Z,6.53
2024-02-16T12:07:41.283Z,8.10
2024-02-16T12:10:11.857Z,6.40
2024-02-16T12:12:40.558Z,7.40
2024-02-16T12:15:09.959Z,6.33
2024-02-16T12:17:38.295Z,5.97
2024-02-16T12:20:14.239Z,5.70
2024-02-16T12:22:42.826Z,7.20
2024-02-16T12:25:11.084Z,6.67
2024-02-16T12:27:39.480Z,7.27
2024-02-16T12:30:09.126Z,8.63
2024-02-16T12:32:37.429Z,7.77
2024-02-16T12:35:08.158Z,8.80
2024-02-16T12:37:38.482Z,6.73
2024-02-16T12:40:08.440Z,6.23
2024-02-16T12:42:36.780Z,6.50
2024-02-16T12:45:05.633Z,6.80
2024-02-16T12:47:34.052Z,7.30
2024-02-16T12:50:02.488Z,7.30
2024-02-16T12:52:37.274Z,8.23
2024-02-16T12:55:11.413Z,7.07
2024-02-16T12:57:40.222Z,7.10
2024-02-16T13:00:10.133Z,6.67
2024-02-16T13:02:38.429Z,7.20
2024-02-16T13:05:07.599Z,8.07
2024-02-16T13:07:39.120Z,7.93
2024-02-16T13:10:08.719Z,6.97
2024-02-16T13:12:38.225Z,8.23
2024-02-16T13:15:18.833Z,7.27
2024-02-16T13:17:56.049Z,6.97
2024-02-16T13:20:24.678Z,8.73
2024-02-16T13:22:54.332Z,7.60
2024-02-16T13:25:22.805Z,8.70
2024-02-16T13:27:51.519Z,10.20
2024-02-16T13:30:19.799Z,8.47
2024-02-16T13:32:48.256Z,10.87
2024-02-16T13:35:19.727Z,9.60
2024-02-16T13:37:49.700Z,11.53
2024-02-16T13:40:19.721Z,9.17
2024-02-16T13:42:49.301Z,9.27
2024-02-16T13:45:17.766Z,10.13
2024-02-16T13:47:46.038Z,9.83
2024-02-16T13:50:14.603Z,10.50
2024-02-16T13:52:42.984Z,11.10
2024-02-16T13:55:11.281Z,11.10
2024-02-16T13:57:41.074Z,11.10
2024-02-16T14:00:10.521Z,11.33
2024-02-16T14:02:42.016Z,12.50
2024-02-16T14:05:10.543Z,12.00
2024-02-16T14:07:46.577Z,10.87
2024-02-16T14:10:19.696Z,13.90
2024-02-16T14:12:49.894Z,12.50
2024-02-16T14:15:18.239Z,13.43
2024-02-16T14:17:46.791Z,14.17
2024-02-16T14:20:15.453Z,14.60
2024-02-16T14:22:43.917Z,14.33
2024-02-16T14:25:14.699Z,13.53
2024-02-16T14:27:44.236Z,14.03
2024-02-16T14:30:15.200Z,13.47
2024-02-16T14:32:43.830Z,12.50
2024-02-16T14:35:12.430Z,11.80
2024-02-16T14:37:40.881Z,12.33
2024-02-16T14:40:12.341Z,13.23
2024-02-16T14:42:41.722Z,12.87
2024-02-16T14:45:20.283Z,12.63
2024-02-16T14:47:51.001Z,13.13
2024-02-16T14:50:19.793Z,13.13
2024-02-16T14:52:48.388Z,13.83
2024-02-16T14:55:17.561Z,13.10
2024-02-16T14:57:46.329Z,13.27
2024-02-16T15:00:15.613Z,12.67
2024-02-16T15:02:44.251Z,13.27
2024-02-16T15:05:14.014Z,12.50
2024-02-16T15:07:42.446Z,12.40
2024-02-16T15:10:12.563Z,13.17
2024-02-16T15:12:41.224Z,12.20
2024-02-16T15:15:10.438Z,12.90
2024-02-16T15:17:38.808Z,12.90
2024-02-16T15:20:08.547Z,12.53
2024-02-16T15:22:45.655Z,13.07
2024-02-16T15:25:21.273Z,11.40
2024-02-16T15:27:49.614Z,12.07
2024-02-16T15:30:18.323Z,10.60
2024-02-16T15:32:46.578Z,11.40
2024-02-16T15:35:15.054Z,12.03
2024-02-16T15:37:46.270Z,10.93
2024-02-16T15:40:15.457Z,10.00
2024-02-16T15:42:44.706Z,11.60
2024-02-16T15:45:13.328Z,10.67
2024-02-16T15:47:42.608Z,10.70
2024-02-16T15:50:11.401Z,10.10
2024-02-16T15:52:39.781Z,9.30
2024-02-16T15:55:10.304Z,9.83
2024-02-16T15:57:38.586Z,8.70
2024-02-16T16:00:08.442Z,8.23
2024-02-16T16:02:36.939Z,8.30
2024-02-16T16:05:05.547Z,8.90
2024-02-16T16:07:33.767Z,8.27
2024-02-16T16:10:02.129Z,7.90
2024-02-16T16:12:31.835Z,7.43
2024-02-16T16:15:00.157Z,7.77
2024-02-16T16:17:28.508Z,7.70
2024-02-16T16:19:58.363Z,7.20
2024-02-16T16:22:27.905Z,6.93
2024-02-16T16:24:56.171Z,6.77
2024-02-16T16:27:24.472Z,6.53
2024-02-16T16:29:54.090Z,6.00
2024-02-16T16:32:22.353Z,5.23
2024-02-16T16:34:50.712Z,5.43
2024-02-16T16:37:19.066Z,5.67
2024-02-16T16:39:47.298Z,6.03
2024-02-16T16:42:15.763Z,6.00
2024-02-16T16:44:44.124Z,5.73
2024-02-16T16:47:14.281Z,5.37
2024-02-16T16:49:43.043Z,5.47
2024-02-16T16:52:12.157Z,5.60
2024-02-16T16:54:41.395Z,6.03
2024-02-16T16:57:09.701Z,5.90
2024-02-16T16:59:38.036Z,6.20
2024-02-16T17:02:07.262Z,6.00
2024-02-16T17:04:36.998Z,6.13
2024-02-16T17:07:05.632Z,7.30
2024-02-16T17:09:34.711Z,6.60
2024-02-16T17:12:05.079Z,7.00
2024-02-16T17:14:33.534Z,7.50
2024-02-16T17:17:03.567Z,6.53
2024-02-16T17:19:32.432Z,7.83
2024-02-16T17:22:04.125Z,8.60
2024-02-16T17:24:33.098Z,6.90
2024-02-16T17:27:01.436Z,7.60
2024-02-16T17:29:29.738Z,7.50
2024-02-16T17:31:58.011Z,7.50
2024-02-16T17:34:26.775Z,7.80
2024-02-16T17:36:55.352Z,6.50
2024-02-16T17:39:27.350Z,6.43
2024-02-16T17:41:56.024Z,6.00
2024-02-16T17:44:24.305Z,6.60
2024-02-16T17:46:52.766Z,5.60
2024-02-16T17:49:21.116Z,5.80
2024-02-16T17:51:49.518Z,5.90
2024-02-16T17:54:17.846Z,6.60
2024-02-16T17:56:47.427Z,7.80
2024-02-16T17:59:15.617Z,7.63
2024-02-16T18:01:44.179Z,8.23
2024-02-16T18:04:12.540Z,8.30
2024-02-16T18:06:43.157Z,6.83
2024-02-16T18:09:11.564Z,7.77
2024-02-16T18:11:40.979Z,7.20
2024-02-16T18:14:11.127Z,8.90
2024-02-16T18:16:39.319Z,8.00
2024-02-16T18:19:08.167Z,7.27
2024-02-16T18:21:36.637Z,8.00
2024-02-16T18:24:05.261Z,6.80
2024-02-16T18:26:35.122Z,7.20
2024-02-16T18:29:03.348Z,7.33
2024-02-16T18:31:36.738Z,7.93
2024-02-16T18:34:05.267Z,10.23
2024-02-16T18:36:33.694Z,10.13
2024-02-16T18:39:03.456Z,9.40
2024-02-16T18:41:31.723Z,9.47
2024-02-16T18:43:59.924Z,10.00
2024-02-16T18:46:28.228Z,10.67
2024-02-16T18:48:58.025Z,10.50
2024-02-16T18:51:26.287Z,10.90
2024-02-16T18:53:54.497Z,11.47
2024-02-16T18:56:22.734Z,13.30
2024-02-16T18:58:51.044Z,12.10
2024-02-16T19:01:20.004Z,11.60
2024-02-16T19:03:49.532Z,11.73
2024-02-16T19:06:19.576Z,11.00
2024-02-16T19:08:47.924Z,11.87
2024-02-16T19:11:16.096Z,12.30
2024-02-16T19:13:44.346Z,11.60
2024-02-16T19:16:12.549Z,10.83
2024-02-16T19:18:41.044Z,11.63
2024-02-16T19:21:09.459Z,12.30
2024-02-16T19:23:39.120Z,13.20
2024-02-16T19:26:09.275Z,11.60
2024-02-16T19:28:40.377Z,10.30
2024-02-16T19:31:09.701Z,11.17
2024-02-16T19:33:38.844Z,11.00
2024-02-16T19:36:09.200Z,10.10
2024-02-16T19:38:38.868Z,9.10
2024-02-16T19:41:07.834Z,9.63
2024-02-16T19:43:36.028Z,9.00
2024-02-16T19:46:04.530Z,8.60
2024-02-16T19:48:33.206Z,8.73
2024-02-16T19:51:01.692Z,9.53
2024-02-16T19:53:30.102Z,8.73
2024-02-16T19:55:59.690Z,8.37
2024-02-16T19:58:27.906Z,8.23
2024-02-16T20:00:56.352Z,9.00
2024-02-16T20:03:25.307Z,8.07
2024-02-16T20:05:54.179Z,8.20
2024-02-16T20:08:22.490Z,7.97
2024-02-16T20:10:50.828Z,8.50
2024-02-16T20:13:20.511Z,8.37
2024-02-16T20:15:48.887Z,8.17
2024-02-16T20:18:20.338Z,8.93
2024-02-16T20:20:48.982Z,7.40
2024-02-16T20:23:18.659Z,8.17
2024-02-16T20:25:47.520Z,7.20
2024-02-16T20:28:15.754Z,8.20
2024-02-16T20:30:45.638Z,8.07
2024-02-16T20:33:14.066Z,8.23
2024-02-16T20:35:42.697Z,7.80
2024-02-16T20:38:10.842Z,7.13
2024-02-16T20:40:39.517Z,7.47
2024-02-16T20:43:07.744Z,8.50
2024-02-16T20:45:37.205Z,8.50
2024-02-16T20:48:08.033Z,9.30
2024-02-16T20:50:36.546Z,8.67
2024-02-16T20:53:04.836Z,9.17
2024-02-16T20:55:33.107Z,9.87
2024-02-16T20:58:01.786Z,9.77
2024-02-16T21:00:30.035Z,10.03
2024-02-16T21:02:58.932Z,9.37
2024-02-16T21:05:28.492Z,9.90
2024-02-16T21:07:58.000Z,11.37
2024-02-16T21:10:26.484Z,11.03
2024-02-16T21:12:54.785Z,10.87
2024-02-16T21:15:24.419Z,11.33
2024-02-16T21:17:53.345Z,11.77
2024-02-16T21:20:21.795Z,12.10
2024-02-16T21:22:51.379Z,12.33
2024-02-16T21:25:19.558Z,12.90
2024-02-16T21:27:47.860Z,12.47
2024-02-16T21:30:17.411Z,13.03
2024-02-16T21:32:45.924Z,13.20
2024-02-16T21:35:20.886Z,14.43
2024-02-16T21:37:49.353Z,14.23
2024-02-16T21:40:19.397Z,16.90
2024-02-16T21:42:47.759Z,15.60
2024-02-16T21:45:16.564Z,17.63
2024-02-16T21:47:45.325Z,16.23
2024-02-16T21:50:13.826Z,19.53
2024-02-16T21:52:42.164Z,15.97
2024-02-16T21:55:11.905Z,20.40
2024-02-16T21:57:43.813Z,18.50
2024-02-16T22:00:13.094Z,18.60
2024-02-16T22:02:41.280Z,17.80
2024-02-16T22:05:09.711Z,19.17
2024-02-16T22:07:38.063Z,21.00
2024-02-16T22:10:10.279Z,19.00
2024-02-16T22:12:39.192Z,19.03
2024-02-16T22:15:09.766Z,17.70
2024-02-16T22:17:38.071Z,17.83
2024-02-16T22:20:07.528Z,16.53
2024-02-16T22:22:35.985Z,15.30
2024-02-16T22:25:04.734Z,14.77
2024-02-16T22:27:33.121Z,15.87
2024-02-16T22:30:01.919Z,16.00
2024-02-16T22:32:31.557Z,16.57
2024-02-16T22:35:01.002Z,14.03
2024-02-16T22:37:31.827Z,13.73
2024-02-16T22:40:00.104Z,12.03
2024-02-16T22:42:28.881Z,11.53
2024-02-16T22:44:57.311Z,11.90
2024-02-16T22:47:25.606Z,11.67
2024-02-16T22:49:55.398Z,12.67
2024-02-16T22:52:23.824Z,14.37
2024-02-16T22:54:52.090Z,13.67
2024-02-16T22:57:20.532Z,14.90
2024-02-16T22:59:48.789Z,16.37
2024-02-16T23:02:16.979Z,16.07
2024-02-16T23:04:45.210Z,14.43
2024-02-16T23:07:15.189Z,14.27
2024-02-16T23:09:44.264Z,14.53
2024-02-16T23:12:13.459Z,12.90
2024-02-16T23:14:41.773Z,10.87
2024-02-16T23:17:10.066Z,12.67
2024-02-16T23:19:38.409Z,11.23
2024-02-16T23:22:06.748Z,10.93
2024-02-16T23:24:36.350Z,11.27
2024-02-16T23:27:04.855Z,11.40
2024-02-16T23:29:33.016Z,10.93
2024-02-16T23:32:01.486Z,11.03
2024-02-16T23:34:29.880Z,11.77
2024-02-16T23:36:58.206Z,11.43
2024-02-16T23:39:26.466Z,13.00
2024-02-16T23:41:56.302Z,13.63
2024-02-16T23:44:24.501Z,11.57
2024-02-16T23:46:53.964Z,12.07
2024-02-16T23:49:22.260Z,13.00
2024-02-16T23:51:50.504Z,12.73
2024-02-16T23:54:19.528Z,12.73
2024-02-16T23:56:47.762Z,14.90
2024-02-16T23:59:17.892Z,11.60
